Time;durP1;ratioP1;P1;durP2;ratioP2;P2;SDS_P1;SDS_P2;PMS_P1;PMS_P2;Temp;Humidity;BMP_temperature;BMP_pressure;BME280_temperature;BME280_humidity;BME280_pressure;Samples;Min_cycle;Max_cycle;Signal;HPM_P1;HPM_P2
2024/04/09 00:00:46;;;;;;;2.60;1.53;;;23.30;55.50;;;;;;5489860;26;20277;-68
2024/04/09 00:03:12;;;;;;;4.20;1.90;;;23.30;55.50;;;;;;5490004;26;20802;-67
2024/04/09 00:05:39;;;;;;;2.20;1.80;;;23.30;55.50;;;;;;5490034;26;20214;-68
2024/04/09 00:08:07;;;;;;;3.60;2.00;;;23.30;55.50;;;;;;5489589;26;20455;-68
2024/04/09 00:10:33;;;;;;;3.93;2.10;;;23.30;55.50;;;;;;5489793;26;20521;-67
2024/04/09 00:13:00;;;;;;;2.70;1.90;;;23.30;55.60;;;;;;5489037;26;20568;-68
2024/04/09 00:15:29;;;;;;;2.50;2.20;;;23.30;55.60;;;;;;5490321;26;20546;-67
2024/04/09 00:17:55;;;;;;;3.90;2.33;;;23.30;55.60;;;;;;5490201;26;20504;-68
2024/04/09 00:20:24;;;;;;;2.87;1.90;;;23.30;55.60;;;;;;5489746;26;20581;-68
2024/04/09 00:22:59;;;;;;;3.20;1.90;;;23.30;55.60;;;;;;5489394;26;20515;-66
2024/04/09 00:25:25;;;;;;;2.90;2.07;;;23.30;55.60;;;;;;5489593;26;20771;-68
2024/04/09 00:27:53;;;;;;;2.30;1.90;;;23.30;55.60;;;;;;5489186;26;20447;-69
2024/04/09 00:30:19;;;;;;;2.63;1.50;;;23.30;55.60;;;;;;5489481;26;20531;-66
2024/04/09 00:32:45;;;;;;;4.23;1.60;;;23.30;55.60;;;;;;5489448;26;20447;-69
2024/04/09 00:35:11;;;;;;;3.00;2.07;;;23.30;55.60;;;;;;5489736;26;21014;-67
2024/04/09 00:37:39;;;;;;;1.93;1.50;;;23.30;55.60;;;;;;5489662;26;20447;-68
2024/04/09 00:40:09;;;;;;;2.87;1.60;;;23.30;55.60;;;;;;5487580;26;21097;-67
2024/04/09 00:42:36;;;;;;;4.00;2.50;;;23.30;55.60;;;;;;5489203;26;20503;-68
2024/04/09 00:45:05;;;;;;;2.10;1.60;;;23.30;55.60;;;;;;5489072;26;20443;-68
2024/04/09 00:47:34;;;;;;;2.60;2.00;;;23.30;55.60;;;;;;5489363;26;20495;-67
2024/04/09 00:50:04;;;;;;;3.23;2.27;;;23.30;55.60;;;;;;5489154;26;20443;-68
2024/04/09 00:52:31;;;;;;;3.53;2.20;;;23.30;55.60;;;;;;5489111;26;20443;-68
2024/04/09 00:54:58;;;;;;;3.20;2.07;;;23.30;55.60;;;;;;5489087;26;20447;-67
2024/04/09 00:57:24;;;;;;;2.50;2.03;;;23.30;55.60;;;;;;5489169;26;20443;-69
2024/04/09 00:59:52;;;;;;;3.30;2.13;;;23.30;56.20;;;;;;5489245;26;20507;-68
2024/04/09 01:02:19;;;;;;;3.00;2.00;;;23.30;55.70;;;;;;5488833;26;20463;-68
2024/04/09 01:04:44;;;;;;;1.73;1.47;;;23.30;55.70;;;;;;5489126;26;20491;-68
2024/04/09 01:07:10;;;;;;;3.00;1.57;;;23.30;55.70;;;;;;5488851;26;20447;-68
2024/04/09 01:09:41;;;;;;;4.70;2.30;;;23.30;55.60;;;;;;5488971;26;20322;-69
2024/04/09 01:12:07;;;;;;;3.13;2.30;;;23.30;55.70;;;;;;5488812;26;20751;-66
2024/04/09 01:14:33;;;;;;;2.57;1.77;;;23.30;55.70;;;;;;5488786;26;20451;-67
2024/04/09 01:16:58;;;;;;;2.73;1.97;;;23.30;55.70;;;;;;5488980;26;20222;-67
2024/04/09 01:19:24;;;;;;;3.33;1.90;;;23.30;55.70;;;;;;5488762;26;20330;-68
2024/04/09 01:21:52;;;;;;;3.13;2.83;;;23.30;55.70;;;;;;5488543;26;20230;-68
2024/04/09 01:24:18;;;;;;;3.13;1.73;;;23.30;55.70;;;;;;5487380;26;20269;-68
2024/04/09 01:26:43;;;;;;;2.70;1.93;;;23.30;55.70;;;;;;5489020;26;20455;-69
2024/04/09 01:29:09;;;;;;;2.03;1.43;;;23.30;55.70;;;;;;5488663;26;20443;-69
2024/04/09 01:31:34;;;;;;;2.40;1.43;;;23.30;55.70;;;;;;5488554;26;20257;-68
2024/04/09 01:34:02;;;;;;;2.13;1.80;;;23.30;55.70;;;;;;5488908;26;20272;-68
2024/04/09 01:36:28;;;;;;;2.77;1.93;;;23.30;55.70;;;;;;5488671;26;20256;-68
2024/04/09 01:38:54;;;;;;;2.37;1.77;;;23.30;55.70;;;;;;5488779;26;20447;-67
2024/04/09 01:41:19;;;;;;;3.80;1.90;;;23.30;55.70;;;;;;5488702;26;20330;-68
2024/04/09 01:43:45;;;;;;;2.70;1.73;;;23.30;55.70;;;;;;5488562;26;20230;-68
2024/04/09 01:46:11;;;;;;;2.37;1.70;;;23.30;55.70;;;;;;5488481;26;20222;-68
2024/04/09 01:48:37;;;;;;;2.20;2.00;;;23.30;55.70;;;;;;5488468;26;20486;-69
2024/04/09 01:51:08;;;;;;;1.93;1.70;;;23.30;55.70;;;;;;5488318;26;20405;-68
2024/04/09 01:53:34;;;;;;;3.73;2.00;;;23.30;55.70;;;;;;5488090;26;20447;-68
2024/04/09 01:56:01;;;;;;;2.70;2.30;;;23.30;55.70;;;;;;5488274;26;20444;-68
2024/04/09 01:58:27;;;;;;;2.70;2.00;;;23.30;55.70;;;;;;5488331;26;20322;-67
2024/04/09 02:00:52;;;;;;;2.07;1.87;;;23.30;55.80;;;;;;5488513;26;21118;-68
2024/04/09 02:03:18;;;;;;;2.60;1.53;;;23.30;55.70;;;;;;5488136;26;20455;-69
2024/04/09 02:05:45;;;;;;;2.60;1.73;;;23.30;55.70;;;;;;5488418;26;20230;-67
2024/04/09 02:08:11;;;;;;;2.07;1.50;;;23.30;55.70;;;;;;5488310;26;20277;-68
2024/04/09 02:10:36;;;;;;;1.87;1.53;;;23.30;55.70;;;;;;5488177;26;20483;-67
2024/04/09 02:13:03;;;;;;;3.27;2.20;;;23.30;55.80;;;;;;5488363;26;20269;-68
2024/04/09 02:15:29;;;;;;;2.20;1.77;;;23.30;55.80;;;;;;5488267;26;20238;-66
2024/04/09 02:17:55;;;;;;;2.43;2.00;;;23.30;55.80;;;;;;5488420;26;20571;-69
2024/04/09 02:20:23;;;;;;;2.60;1.93;;;23.30;55.80;;;;;;5488289;26;20486;-68
2024/04/09 02:22:49;;;;;;;2.73;1.97;;;23.30;55.80;;;;;;5487567;26;20455;-68
2024/04/09 02:25:14;;;;;;;2.00;1.80;;;23.30;55.80;;;;;;5487847;26;20508;-68
2024/04/09 02:27:40;;;;;;;2.57;2.23;;;23.30;55.80;;;;;;5485553;26;20632;-69
2024/04/09 02:30:09;;;;;;;3.23;1.97;;;23.30;56.30;;;;;;5487936;26;20218;-68
2024/04/09 02:32:36;;;;;;;2.57;1.70;;;23.30;55.80;;;;;;5488194;26;20218;-68
2024/04/09 02:35:04;;;;;;;2.20;1.77;;;23.30;55.80;;;;;;5487195;26;20444;-68
2024/04/09 02:37:31;;;;;;;4.33;2.00;;;23.30;55.80;;;;;;5486367;26;20451;-68
2024/04/09 02:39:58;;;;;;;2.80;2.23;;;23.30;55.80;;;;;;5488044;26;20436;-68
2024/04/09 02:42:27;;;;;;;1.67;1.53;;;23.30;55.80;;;;;;5487547;26;20443;-68
2024/04/09 02:44:53;;;;;;;2.70;1.67;;;23.30;55.80;;;;;;5487429;26;20451;-66
2024/04/09 02:47:18;;;;;;;2.27;1.53;;;23.30;55.80;;;;;;5487658;26;20504;-69
2024/04/09 02:49:44;;;;;;;2.03;1.83;;;23.30;55.80;;;;;;5487462;26;20214;-68
2024/04/09 02:52:11;;;;;;;2.80;1.67;;;23.30;55.80;;;;;;5487239;26;20712;-68
2024/04/09 02:54:39;;;;;;;1.87;1.67;;;23.30;55.80;;;;;;5487668;26;20218;-68
2024/04/09 02:57:05;;;;;;;3.00;1.87;;;23.30;55.80;;;;;;5487760;26;20963;-67
2024/04/09 02:59:31;;;;;;;4.57;2.00;;;23.30;55.80;;;;;;5485927;26;20447;-68
2024/04/09 03:01:56;;;;;;;2.50;1.70;;;23.30;55.80;;;;;;5486960;26;20467;-68
2024/04/09 03:04:22;;;;;;;2.63;1.90;;;23.30;55.80;;;;;;5486854;26;20555;-68
2024/04/09 03:06:47;;;;;;;4.00;1.90;;;23.30;55.80;;;;;;5486954;26;20234;-69
2024/04/09 03:09:13;;;;;;;5.17;1.60;;;23.30;55.80;;;;;;5487382;26;20261;-68
2024/04/09 03:11:38;;;;;;;2.57;2.00;;;23.30;55.80;;;;;;5486914;26;20641;-68
2024/04/09 03:14:11;;;;;;;5.07;1.60;;;23.30;55.80;;;;;;5487039;26;20214;-69
2024/04/09 03:16:37;;;;;;;2.50;1.60;;;23.30;55.90;;;;;;5486960;26;20218;-68
2024/04/09 03:19:03;;;;;;;2.27;1.60;;;23.30;55.80;;;;;;5486901;26;20495;-68
2024/04/09 03:21:29;;;;;;;1.77;1.40;;;23.30;55.90;;;;;;5486376;26;20231;-68
2024/04/09 03:23:55;;;;;;;3.17;1.50;;;23.30;55.90;;;;;;5486707;26;20494;-68
2024/04/09 03:26:21;;;;;;;2.10;1.63;;;23.20;55.80;;;;;;5486957;26;20451;-68
2024/04/09 03:28:46;;;;;;;2.00;1.53;;;23.30;55.80;;;;;;5486874;26;20325;-68
2024/04/09 03:31:12;;;;;;;2.03;1.40;;;23.30;55.80;;;;;;5486696;26;20277;-68
2024/04/09 03:33:38;;;;;;;2.03;1.60;;;23.30;55.90;;;;;;5486870;26;20622;-68
2024/04/09 03:36:06;;;;;;;2.00;1.40;;;23.30;55.90;;;;;;5486924;26;20326;-69
2024/04/09 03:38:31;;;;;;;2.47;1.80;;;23.30;55.90;;;;;;5487191;26;20459;-68
2024/04/09 03:41:05;;;;;;;2.23;1.60;;;23.30;55.90;;;;;;5486409;26;20464;-68
2024/04/09 03:43:31;;;;;;;2.40;1.80;;;23.30;55.90;;;;;;5486655;26;20759;-69
2024/04/09 03:46:10;;;;;;;4.90;1.60;;;23.30;55.90;;;;;;5486523;26;20499;-68
2024/04/09 03:48:44;;;;;;;2.83;2.10;;;23.30;55.90;;;;;;5490216;26;20497;-69
2024/04/09 03:51:14;;;;;;;2.70;1.93;;;23.30;55.90;;;;;;5490802;26;20518;-68
2024/04/09 03:53:40;;;;;;;2.50;1.57;;;23.30;55.90;;;;;;5490586;26;20565;-68
2024/04/09 03:56:06;;;;;;;2.00;1.50;;;23.30;55.90;;;;;;5490205;26;20455;-68
2024/04/09 03:58:37;;;;;;;2.40;1.47;;;23.30;55.90;;;;;;5490759;26;20503;-67
2024/04/09 04:01:04;;;;;;;1.40;1.30;;;23.30;55.90;;;;;;5490310;26;20475;-68
2024/04/09 04:03:31;;;;;;;2.40;1.53;;;23.30;55.90;;;;;;5489923;26;20527;-68
2024/04/09 04:05:59;;;;;;;1.97;1.60;;;23.30;55.90;;;;;;5490092;26;20514;-68
2024/04/09 04:08:29;;;;;;;3.27;2.00;;;23.30;55.90;;;;;;5489961;26;20456;-68
2024/04/09 04:10:59;;;;;;;3.73;1.77;;;23.30;55.90;;;;;;5489934;26;20589;-69
2024/04/09 04:13:28;;;;;;;2.00;1.60;;;23.30;55.90;;;;;;5490030;26;21210;-68
2024/04/09 04:16:07;;;;;;;1.97;1.70;;;23.30;55.90;;;;;;5490221;26;20447;-68
2024/04/09 04:18:44;;;;;;;1.70;1.20;;;23.30;55.90;;;;;;5490535;26;20796;-68
2024/04/09 04:21:15;;;;;;;2.50;1.70;;;23.30;55.90;;;;;;5489862;26;21162;-68
2024/04/09 04:23:42;;;;;;;2.70;1.60;;;23.30;55.90;;;;;;5490267;26;20465;-67
2024/04/09 04:26:16;;;;;;;2.57;1.53;;;23.30;55.90;;;;;;5489678;26;20451;-68
2024/04/09 04:28:43;;;;;;;3.00;1.90;;;23.30;55.90;;;;;;5489864;26;20586;-67
2024/04/09 04:31:10;;;;;;;1.83;1.50;;;23.30;55.90;;;;;;5489977;26;20511;-66
2024/04/09 04:33:37;;;;;;;2.63;1.60;;;23.30;55.90;;;;;;5489835;26;20448;-69
2024/04/09 04:36:04;;;;;;;2.47;1.70;;;23.30;55.90;;;;;;5489748;26;20534;-68
2024/04/09 04:38:30;;;;;;;3.20;1.80;;;23.30;55.90;;;;;;5490042;26;20447;-68
2024/04/09 04:40:55;;;;;;;1.50;1.20;;;23.30;55.90;;;;;;5489483;26;20585;-68
2024/04/09 04:43:21;;;;;;;2.03;1.70;;;23.30;55.90;;;;;;5489867;26;20757;-68
2024/04/09 04:45:47;;;;;;;2.23;1.57;;;23.30;55.90;;;;;;5489596;26;20222;-69
2024/04/09 04:48:13;;;;;;;4.13;1.70;;;23.30;55.90;;;;;;5489591;26;20347;-68
2024/04/09 04:50:39;;;;;;;2.43;1.30;;;23.40;56.00;;;;;;5489158;26;20504;-67
2024/04/09 04:53:05;;;;;;;3.10;1.53;;;23.30;55.90;;;;;;5489715;26;20439;-68
2024/04/09 04:55:32;;;;;;;1.57;1.30;;;23.40;56.00;;;;;;5489488;26;20503;-68
2024/04/09 04:57:59;;;;;;;2.07;1.40;;;23.40;56.00;;;;;;5488983;26;20439;-67
2024/04/09 05:00:26;;;;;;;1.70;1.50;;;23.40;56.00;;;;;;5489467;26;20529;-67
2024/04/09 05:02:51;;;;;;;1.67;1.47;;;23.40;56.00;;;;;;5489436;26;20447;-69
2024/04/09 05:05:17;;;;;;;1.77;1.50;;;23.40;56.00;;;;;;5489134;26;20493;-68
2024/04/09 05:07:43;;;;;;;1.80;1.47;;;23.40;56.00;;;;;;5488855;26;20226;-67
2024/04/09 05:10:12;;;;;;;1.80;1.20;;;23.40;56.00;;;;;;5489005;26;20226;-66
2024/04/09 05:12:48;;;;;;;2.10;1.60;;;23.40;56.00;;;;;;5496710;25;20225;-68
2024/04/09 05:15:14;;;;;;;1.80;1.43;;;23.40;55.90;;;;;;5523682;25;20498;-68
2024/04/09 05:17:40;;;;;;;3.50;1.73;;;23.40;55.90;;;;;;5520087;26;20464;-69
2024/04/09 05:20:10;;;;;;;1.53;1.43;;;23.40;55.90;;;;;;5524342;25;20225;-69
2024/04/09 05:22:39;;;;;;;1.90;1.70;;;23.40;55.90;;;;;;5525532;25;20458;-68
2024/04/09 05:25:06;;;;;;;3.23;1.50;;;23.40;55.90;;;;;;5525946;25;21039;-68
2024/04/09 05:27:32;;;;;;;3.30;1.80;;;23.40;55.90;;;;;;5526016;25;20450;-67
2024/04/09 05:29:58;;;;;;;2.43;1.50;;;23.40;55.90;;;;;;5525782;25;21054;-69
2024/04/09 05:32:24;;;;;;;2.40;1.83;;;23.40;55.90;;;;;;5525584;25;20980;-68
2024/04/09 05:34:50;;;;;;;2.50;2.03;;;23.40;55.90;;;;;;5525592;25;20247;-69
2024/04/09 05:37:16;;;;;;;2.20;1.70;;;23.40;55.90;;;;;;5525179;26;20450;-68
2024/04/09 05:39:48;;;;;;;2.83;2.00;;;23.40;55.90;;;;;;5525583;25;20217;-67
2024/04/09 05:42:16;;;;;;;3.43;2.50;;;23.40;55.90;;;;;;5525594;25;20732;-69
2024/04/09 05:44:42;;;;;;;2.50;1.50;;;23.40;55.90;;;;;;5524998;26;20539;-68
2024/04/09 05:47:08;;;;;;;1.77;1.50;;;23.40;55.90;;;;;;5525160;25;20454;-67
2024/04/09 05:49:34;;;;;;;2.50;1.80;;;23.50;55.90;;;;;;5526009;25;21036;-68
2024/04/09 05:52:00;;;;;;;3.03;1.70;;;23.40;55.90;;;;;;5525158;25;20279;-68
2024/04/09 05:54:26;;;;;;;2.57;1.70;;;23.50;55.90;;;;;;5525412;25;20813;-68
2024/04/09 05:56:52;;;;;;;2.40;2.00;;;23.50;55.90;;;;;;5524899;26;20232;-69
2024/04/09 05:59:18;;;;;;;2.20;1.77;;;23.50;55.90;;;;;;5525903;25;20213;-67
2024/04/09 06:01:44;;;;;;;3.50;1.87;;;23.50;56.00;;;;;;5524943;25;20466;-67
2024/04/09 06:04:10;;;;;;;2.10;1.80;;;23.50;55.90;;;;;;5524838;26;20442;-68
2024/04/09 06:06:35;;;;;;;3.00;2.10;;;23.50;55.90;;;;;;5525597;25;20225;-68
2024/04/09 06:09:01;;;;;;;2.07;1.73;;;23.50;55.90;;;;;;5524354;26;20229;-68
2024/04/09 06:11:27;;;;;;;2.70;1.67;;;23.50;55.90;;;;;;5524549;26;20230;-67
2024/04/09 06:13:53;;;;;;;2.63;1.60;;;23.50;55.90;;;;;;5524877;26;20259;-66
2024/04/09 06:16:19;;;;;;;3.00;1.90;;;23.50;55.90;;;;;;5525259;25;20248;-67
2024/04/09 06:18:45;;;;;;;2.83;1.70;;;23.50;55.90;;;;;;5525347;25;20545;-67
2024/04/09 06:21:11;;;;;;;2.13;1.40;;;23.50;56.00;;;;;;5524902;25;20454;-67
2024/04/09 06:23:36;;;;;;;2.10;1.87;;;23.50;55.90;;;;;;5524529;26;20272;-68
2024/04/09 06:26:02;;;;;;;3.30;2.20;;;23.50;55.90;;;;;;5524808;26;20209;-67
2024/04/09 06:28:28;;;;;;;2.57;2.03;;;23.50;55.90;;;;;;5524620;25;20759;-67
2024/04/09 06:30:53;;;;;;;3.00;2.23;;;23.50;56.00;;;;;;5525102;26;20469;-64
2024/04/09 06:33:20;;;;;;;3.77;1.93;;;23.50;55.90;;;;;;5525227;26;20221;-68
2024/04/09 06:35:46;;;;;;;5.80;2.23;;;23.50;55.90;;;;;;5524630;25;20221;-68
2024/04/09 06:38:11;;;;;;;5.00;1.80;;;23.50;55.90;;;;;;5524412;26;20570;-65
2024/04/09 06:40:37;;;;;;;3.47;2.40;;;23.50;55.90;;;;;;5524491;26;20336;-66
2024/04/09 06:43:03;;;;;;;3.10;2.60;;;23.50;55.90;;;;;;5522849;26;20263;-66
2024/04/09 06:45:29;;;;;;;2.60;1.83;;;23.50;55.90;;;;;;5522776;26;20255;-66
2024/04/09 06:47:54;;;;;;;4.90;2.40;;;23.50;55.90;;;;;;5524665;26;20446;-67
2024/04/09 06:50:20;;;;;;;2.33;2.00;;;23.50;55.90;;;;;;5523885;26;20221;-67
2024/04/09 06:52:46;;;;;;;3.90;2.20;;;23.50;55.90;;;;;;5524327;26;20336;-67
2024/04/09 06:55:11;;;;;;;3.67;2.30;;;23.50;55.90;;;;;;5524647;26;20252;-66
2024/04/09 06:57:37;;;;;;;2.53;1.93;;;23.60;56.10;;;;;;5524325;26;20217;-67
2024/04/09 07:00:04;;;;;;;4.77;2.23;;;23.50;55.90;;;;;;5524425;25;20217;-65
2024/04/09 07:02:30;;;;;;;3.40;2.27;;;23.60;56.00;;;;;;5523989;25;20214;-67
2024/04/09 07:04:56;;;;;;;2.70;1.87;;;23.60;56.10;;;;;;5523777;25;20485;-67
2024/04/09 07:07:22;;;;;;;3.60;2.70;;;23.60;56.00;;;;;;5523859;25;20793;-67
2024/04/09 07:09:49;;;;;;;3.93;1.90;;;23.60;56.00;;;;;;5524124;25;20221;-67
2024/04/09 07:12:15;;;;;;;3.40;1.87;;;23.60;56.10;;;;;;5524071;25;20525;-67
2024/04/09 07:14:40;;;;;;;3.07;2.10;;;23.60;56.10;;;;;;5522518;26;20509;-66
2024/04/09 07:17:06;;;;;;;4.67;2.10;;;23.60;56.10;;;;;;5523748;26;20632;-67
2024/04/09 07:19:31;;;;;;;5.53;1.93;;;23.60;56.10;;;;;;5524196;26;20264;-67
2024/04/09 07:21:57;;;;;;;3.87;2.17;;;23.60;56.10;;;;;;5526462;26;20330;-67
2024/04/09 07:24:23;;;;;;;3.40;2.30;;;23.60;56.10;;;;;;5527731;25;20260;-67
2024/04/09 07:26:49;;;;;;;3.33;2.60;;;23.60;56.10;;;;;;5527736;25;20217;-68
2024/04/09 07:29:14;;;;;;;5.93;2.97;;;23.60;56.10;;;;;;5527812;26;20214;-65
2024/04/09 07:31:40;;;;;;;3.20;2.70;;;23.60;56.10;;;;;;5527242;26;20225;-68
2024/04/09 07:34:06;;;;;;;3.40;2.53;;;23.60;56.00;;;;;;5527895;25;20259;-68
2024/04/09 07:36:32;;;;;;;4.60;2.20;;;23.60;56.00;;;;;;5527610;26;20224;-66
2024/04/09 07:38:57;;;;;;;5.03;2.53;;;23.60;56.00;;;;;;5527837;25;20217;-67
2024/04/09 07:41:23;;;;;;;3.90;2.37;;;23.60;56.00;;;;;;5527777;26;20316;-66
2024/04/09 07:43:52;;;;;;;4.20;2.50;;;23.60;56.00;;;;;;5527746;25;20228;-67
2024/04/09 07:46:19;;;;;;;3.80;2.40;;;23.60;56.00;;;;;;5527646;25;20221;-68
2024/04/09 07:48:45;;;;;;;4.77;2.50;;;23.60;56.00;;;;;;5527141;26;20502;-66
2024/04/09 07:51:11;;;;;;;7.10;2.53;;;23.60;56.00;;;;;;5526842;26;20461;-66
2024/04/09 07:53:38;;;;;;;5.47;3.17;;;23.60;56.00;;;;;;5527593;25;20225;-68
2024/04/09 07:56:04;;;;;;;3.60;2.63;;;23.60;56.00;;;;;;5527441;25;20832;-68
2024/04/09 07:58:30;;;;;;;5.03;3.47;;;23.60;56.00;;;;;;5527252;25;21034;-68
2024/04/09 08:00:56;;;;;;;4.47;3.07;;;23.60;56.00;;;;;;5526991;25;20506;-68
2024/04/09 08:03:22;;;;;;;3.93;2.70;;;23.60;56.00;;;;;;5526738;26;21020;-68
2024/04/09 08:05:47;;;;;;;6.40;3.43;;;23.60;56.00;;;;;;5526574;26;20736;-67
2024/04/09 08:08:13;;;;;;;6.20;2.73;;;23.60;56.00;;;;;;5525335;26;20387;-67
2024/04/09 08:10:40;;;;;;;4.37;3.00;;;23.60;56.00;;;;;;5527188;26;20279;-67
2024/04/09 08:13:06;;;;;;;3.80;2.47;;;23.60;56.00;;;;;;5527071;25;20221;-68
2024/04/09 08:15:31;;;;;;;4.93;2.73;;;23.60;56.00;;;;;;5526719;26;20910;-67
2024/04/09 08:17:57;;;;;;;4.43;2.37;;;23.60;56.00;;;;;;5526993;26;20260;-68
2024/04/09 08:20:23;;;;;;;8.93;3.97;;;23.60;56.00;;;;;;5524924;26;20712;-65
2024/04/09 08:22:49;;;;;;;3.37;2.90;;;23.60;56.00;;;;;;5526604;25;20245;-67
2024/04/09 08:25:15;;;;;;;3.90;2.60;;;23.70;56.00;;;;;;5527028;26;20480;-67
2024/04/09 08:27:42;;;;;;;4.70;2.73;;;23.70;56.10;;;;;;5527060;25;20591;-67
2024/04/09 08:30:12;;;;;;;4.53;2.23;;;23.60;56.00;;;;;;5526563;25;20445;-67
2024/04/09 08:32:39;;;;;;;2.70;2.30;;;23.60;56.00;;;;;;5525923;25;20504;-67
2024/04/09 08:35:05;;;;;;;2.87;2.23;;;23.70;56.00;;;;;;5526615;25;20450;-67
2024/04/09 08:37:30;;;;;;;4.43;2.87;;;23.70;56.10;;;;;;5526428;25;20598;-68
2024/04/09 08:39:56;;;;;;;3.13;2.37;;;23.70;56.10;;;;;;5526780;25;20980;-66
2024/04/09 08:42:28;;;;;;;4.20;2.30;;;23.70;56.10;;;;;;5526531;25;20233;-68
2024/04/09 08:44:55;;;;;;;6.90;2.70;;;23.70;56.10;;;;;;5526690;25;20442;-66
2024/04/09 08:47:23;;;;;;;2.77;2.20;;;23.70;56.10;;;;;;5526020;25;21127;-68
2024/04/09 08:49:49;;;;;;;5.33;2.70;;;23.70;56.10;;;;;;5526245;25;20449;-68
2024/04/09 08:52:19;;;;;;;3.23;2.20;;;23.70;56.10;;;;;;5526228;25;20454;-68
2024/04/09 08:54:45;;;;;;;4.07;2.40;;;23.70;56.10;;;;;;5526251;25;20438;-68
2024/04/09 08:57:11;;;;;;;3.03;2.33;;;23.70;56.10;;;;;;5525678;26;20483;-66
2024/04/09 08:59:37;;;;;;;4.23;2.73;;;23.70;56.10;;;;;;5525929;25;20491;-67
2024/04/09 09:02:06;;;;;;;3.50;2.40;;;23.70;56.10;;;;;;5525805;25;20333;-67
2024/04/09 09:04:38;;;;;;;4.87;2.30;;;23.70;56.10;;;;;;5525600;25;20498;-67
2024/04/09 09:07:05;;;;;;;5.10;2.43;;;23.70;56.10;;;;;;5526084;25;20438;-68
2024/04/09 09:09:31;;;;;;;5.33;2.63;;;23.70;56.10;;;;;;5525907;25;20434;-66
2024/04/09 09:12:04;;;;;;;4.03;2.70;;;23.70;56.70;;;;;;5524177;26;21047;-66
2024/04/09 09:14:30;;;;;;;5.87;2.73;;;23.70;56.10;;;;;;5525698;25;20259;-68
2024/04/09 09:17:03;;;;;;;3.93;2.43;;;23.70;56.10;;;;;;5525687;26;20441;-67
2024/04/09 09:19:33;;;;;;;3.23;2.40;;;23.70;56.10;;;;;;5525716;25;20700;-65
2024/04/09 09:22:09;;;;;;;4.60;2.30;;;23.70;56.10;;;;;;5525773;25;21019;-66
2024/04/09 09:24:35;;;;;;;4.03;2.40;;;23.70;56.10;;;;;;5526288;25;20449;-67
2024/04/09 09:27:03;;;;;;;3.90;2.43;;;23.70;56.10;;;;;;5525587;25;20551;-67
2024/04/09 09:29:29;;;;;;;5.53;3.20;;;23.70;56.10;;;;;;5524278;26;20847;-67
2024/04/09 09:31:55;;;;;;;3.90;2.67;;;23.70;56.10;;;;;;5525130;25;20462;-68
2024/04/09 09:34:42;;;;;;;4.07;2.70;;;23.70;56.10;;;;;;5525297;26;20320;-67
2024/04/09 09:37:10;;;;;;;3.50;2.13;;;23.80;56.20;;;;;;5523957;26;20312;-66
2024/04/09 09:39:40;;;;;;;3.03;2.60;;;23.70;56.10;;;;;;5525447;25;20434;-67
2024/04/09 09:42:09;;;;;;;3.17;2.30;;;23.70;56.10;;;;;;5525377;25;20446;-68
2024/04/09 09:44:36;;;;;;;4.00;2.37;;;23.70;56.10;;;;;;5523953;25;20814;-68
2024/04/09 09:47:06;;;;;;;5.83;2.70;;;23.70;56.10;;;;;;5524974;25;20868;-66
2024/04/09 09:49:32;;;;;;;2.90;2.33;;;23.70;56.10;;;;;;5524811;25;20981;-67
2024/04/09 09:51:59;;;;;;;3.30;2.47;;;23.70;56.10;;;;;;5525110;25;20466;-67
2024/04/09 09:54:27;;;;;;;4.70;2.20;;;23.70;56.10;;;;;;5524788;25;20501;-66
2024/04/09 09:57:15;;;;;;;6.13;3.40;;;23.70;56.10;;;;;;5524991;25;20434;-67
2024/04/09 09:59:48;;;;;;;5.40;2.80;;;23.70;56.10;;;;;;5525166;25;20941;-66
2024/04/09 10:02:15;;;;;;;7.83;2.93;;;23.70;56.10;;;;;;5525069;25;20518;-67
2024/04/09 10:04:42;;;;;;;4.57;2.83;;;23.70;56.10;;;;;;5524869;25;20509;-67
2024/04/09 10:07:11;;;;;;;3.63;2.30;;;23.70;56.10;;;;;;5525120;25;20445;-66
2024/04/09 10:09:43;;;;;;;2.73;2.20;;;23.70;56.20;;;;;;5524940;25;20840;-66
2024/04/09 10:12:18;;;;;;;5.40;2.10;;;23.70;56.10;;;;;;5524560;25;21119;-65
2024/04/09 10:14:44;;;;;;;3.93;2.10;;;23.70;56.20;;;;;;5524701;26;20494;-67
2024/04/09 10:17:11;;;;;;;4.47;2.53;;;23.80;56.20;;;;;;5524772;26;20446;-67
2024/04/09 10:19:36;;;;;;;2.70;2.10;;;23.70;56.10;;;;;;5524559;25;20747;-68
2024/04/09 10:22:03;;;;;;;3.77;2.37;;;23.70;56.10;;;;;;5524296;26;20469;-68
2024/04/09 10:24:29;;;;;;;3.10;2.00;;;23.80;56.20;;;;;;5522668;26;20221;-67
2024/04/09 10:26:56;;;;;;;2.43;1.97;;;23.80;56.20;;;;;;5524503;25;20520;-69
2024/04/09 10:29:24;;;;;;;3.77;2.60;;;23.80;56.20;;;;;;5524425;25;20543;-69
2024/04/09 10:31:50;;;;;;;3.60;2.67;;;23.80;56.20;;;;;;5524188;26;20454;-68
2024/04/09 10:34:26;;;;;;;4.10;2.80;;;23.80;56.20;;;;;;5523886;26;20930;-69
2024/04/09 10:36:55;;;;;;;2.73;2.07;;;23.80;56.20;;;;;;5524393;25;20221;-66
2024/04/09 10:39:21;;;;;;;5.03;2.60;;;23.80;56.20;;;;;;5523944;25;20495;-68
2024/04/09 10:41:57;;;;;;;5.33;3.20;;;23.80;56.20;;;;;;5523941;25;20453;-68
2024/04/09 10:44:23;;;;;;;3.20;1.83;;;23.80;56.20;;;;;;5523168;25;20841;-68
2024/04/09 10:46:49;;;;;;;3.53;2.80;;;23.70;56.10;;;;;;5523700;25;21187;-68
2024/04/09 10:49:15;;;;;;;4.17;2.40;;;23.80;56.20;;;;;;5523790;26;20489;-67
2024/04/09 10:51:46;;;;;;;3.67;2.47;;;23.80;56.20;;;;;;5524072;25;20570;-68
2024/04/09 10:54:15;;;;;;;3.77;2.37;;;23.80;56.20;;;;;;5523828;25;20498;-68
2024/04/09 10:56:41;;;;;;;2.90;2.33;;;23.80;56.20;;;;;;5525680;25;20559;-68
2024/04/09 10:59:21;;;;;;;3.10;2.07;;;23.80;56.20;;;;;;5527330;25;20845;-68
2024/04/09 11:01:47;;;;;;;3.40;2.33;;;23.80;56.20;;;;;;5526909;25;20474;-68
2024/04/09 11:04:15;;;;;;;6.20;2.63;;;23.80;56.20;;;;;;5527236;26;20442;-67
2024/04/09 11:06:42;;;;;;;4.80;2.23;;;23.80;56.20;;;;;;5527433;25;20217;-68
2024/04/09 11:09:08;;;;;;;2.67;2.17;;;23.70;56.20;;;;;;5526842;26;20450;-68
2024/04/09 11:11:34;;;;;;;8.17;2.60;;;23.70;56.10;;;;;;5527800;25;20502;-67
2024/04/09 11:14:02;;;;;;;4.40;2.40;;;23.80;56.20;;;;;;5527065;25;20485;-68
2024/04/09 11:16:27;;;;;;;3.53;1.90;;;23.80;56.20;;;;;;5526556;25;20489;-69
2024/04/09 11:19:00;;;;;;;2.50;2.00;;;23.80;56.20;;;;;;5527150;26;20450;-66
2024/04/09 11:21:34;;;;;;;4.50;2.50;;;23.70;56.20;;;;;;5526641;25;20237;-69
2024/04/09 11:24:01;;;;;;;5.07;2.10;;;23.80;56.20;;;;;;5526863;25;20445;-68
2024/04/09 11:26:26;;;;;;;4.47;2.80;;;23.80;56.20;;;;;;5526756;25;20486;-68
2024/04/09 11:28:52;;;;;;;3.90;2.60;;;23.80;56.20;;;;;;5526850;25;20521;-67
2024/04/09 11:31:24;;;;;;;6.33;4.23;;;23.80;56.20;;;;;;5526919;26;20357;-68
2024/04/09 11:33:50;;;;;;;23.80;14.20;;;23.80;56.80;;;;;;5526960;25;20281;-68
2024/04/09 11:36:16;;;;;;;37.37;21.80;;;23.80;56.20;;;;;;5526436;25;20868;-69
2024/04/09 11:38:42;;;;;;;48.30;25.70;;;23.80;56.20;;;;;;5526513;26;20217;-68
2024/04/09 11:41:08;;;;;;;77.60;34.73;;;23.80;56.20;;;;;;5526053;26;20225;-68
2024/04/09 11:43:34;;;;;;;85.90;39.30;;;23.80;56.20;;;;;;5527124;25;20638;-68
2024/04/09 11:46:01;;;;;;;101.67;50.10;;;23.80;56.20;;;;;;5524939;26;20430;-68
2024/04/09 11:48:27;;;;;;;112.87;52.13;;;23.80;56.20;;;;;;5526298;25;20781;-68
2024/04/09 11:50:53;;;;;;;102.27;50.77;;;23.80;56.30;;;;;;5526598;25;20466;-68
2024/04/09 11:53:19;;;;;;;98.77;50.90;;;23.80;56.30;;;;;;5526630;26;20506;-67
2024/04/09 11:55:45;;;;;;;111.37;53.13;;;23.80;56.30;;;;;;5526893;26;20251;-67
2024/04/09 11:58:11;;;;;;;109.83;53.27;;;23.80;56.30;;;;;;5526242;25;20217;-68
2024/04/09 12:00:37;;;;;;;105.30;50.33;;;23.80;56.30;;;;;;5525586;26;20588;-68
2024/04/09 12:03:03;;;;;;;98.37;48.53;;;23.80;56.90;;;;;;5526300;25;20446;-67
2024/04/09 12:05:29;;;;;;;87.77;44.50;;;23.80;56.30;;;;;;5526241;25;20513;-67
2024/04/09 12:07:55;;;;;;;89.10;46.10;;;23.80;56.30;;;;;;5525414;26;20559;-68
2024/04/09 12:10:21;;;;;;;92.80;48.30;;;23.80;56.30;;;;;;5526111;25;20713;-68
2024/04/09 12:12:47;;;;;;;77.67;40.67;;;23.80;56.30;;;;;;5526012;25;20446;-67
2024/04/09 12:15:13;;;;;;;94.17;44.10;;;23.80;56.40;;;;;;5526480;26;20852;-68
2024/04/09 12:17:41;;;;;;;92.77;45.13;;;23.80;56.40;;;;;;5526299;26;20225;-68
2024/04/09 12:20:07;;;;;;;86.97;44.40;;;23.80;56.40;;;;;;5526124;25;20964;-67
2024/04/09 12:22:34;;;;;;;92.53;45.03;;;23.80;56.40;;;;;;5525972;25;20558;-66
2024/04/09 12:25:00;;;;;;;80.93;43.60;;;23.80;56.40;;;;;;5526185;25;20430;-67
2024/04/09 12:27:25;;;;;;;80.63;41.00;;;23.80;56.40;;;;;;5525890;25;20841;-68
2024/04/09 12:29:52;;;;;;;83.43;42.47;;;23.80;56.40;;;;;;5525763;26;20438;-67
2024/04/09 12:32:18;;;;;;;81.13;43.77;;;23.80;56.40;;;;;;5525895;25;20633;-66
2024/04/09 12:34:44;;;;;;;82.93;40.63;;;23.80;56.40;;;;;;5526026;25;21032;-67
2024/04/09 12:37:10;;;;;;;78.17;41.67;;;23.80;56.40;;;;;;5526059;25;20441;-68
2024/04/09 12:39:37;;;;;;;78.37;40.00;;;23.80;56.40;;;;;;5526154;26;20489;-67
2024/04/09 12:42:02;;;;;;;80.90;41.73;;;23.80;56.40;;;;;;5526227;26;20278;-67
2024/04/09 12:44:29;;;;;;;77.97;42.03;;;23.80;56.40;;;;;;5526112;26;20442;-66